sensor_id;sensor_type;location;lat;lon;timestamp;P1;durP1;ratioP1;P2;durP2;ratioP2
16813;SDS011;8524;57.650;11.926;2023-02-28T00:01:48;5.70;;;3.50;;
16813;SDS011;8524;57.650;11.926;2023-02-28T00:04:16;4.73;;;3.20;;
16813;SDS011;8524;57.650;11.926;2023-02-28T00:06:43;4.77;;;3.27;;
16813;SDS011;8524;57.650;11.926;2023-02-28T00:09:10;6.13;;;3.40;;
16813;SDS011;8524;57.650;11.926;2023-02-28T00:11:37;3.80;;;3.10;;
16813;SDS011;8524;57.650;11.926;2023-02-28T00:14:05;4.27;;;3.17;;
16813;SDS011;8524;57.650;11.926;2023-02-28T00:16:32;4.43;;;2.90;;
16813;SDS011;8524;57.650;11.926;2023-02-28T00:18:59;5.75;;;3.67;;
16813;SDS011;8524;57.650;11.926;2023-02-28T00:21:28;4.97;;;3.50;;
16813;SDS011;8524;57.650;11.926;2023-02-28T00:23:55;4.00;;;3.10;;
16813;SDS011;8524;57.650;11.926;2023-02-28T00:26:22;4.40;;;3.20;;
16813;SDS011;8524;57.650;11.926;2023-02-28T00:28:49;5.03;;;3.60;;
16813;SDS011;8524;57.650;11.926;2023-02-28T00:31:18;3.90;;;3.20;;
16813;SDS011;8524;57.650;11.926;2023-02-28T00:33:45;3.93;;;3.13;;
16813;SDS011;8524;57.650;11.926;2023-02-28T00:36:12;3.20;;;2.87;;
16813;SDS011;8524;57.650;11.926;2023-02-28T00:38:41;4.37;;;3.00;;
16813;SDS011;8524;57.650;11.926;2023-02-28T00:41:08;5.57;;;3.10;;
16813;SDS011;8524;57.650;11.926;2023-02-28T00:43:36;4.53;;;3.43;;
16813;SDS011;8524;57.650;11.926;2023-02-28T00:46:04;3.27;;;2.97;;
16813;SDS011;8524;57.650;11.926;2023-02-28T00:48:32;5.00;;;3.60;;
16813;SDS011;8524;57.650;11.926;2023-02-28T00:50:59;3.43;;;2.93;;
16813;SDS011;8524;57.650;11.926;2023-02-28T00:53:26;4.97;;;3.20;;
16813;SDS011;8524;57.650;11.926;2023-02-28T00:55:55;4.73;;;3.30;;
16813;SDS011;8524;57.650;11.926;2023-02-28T00:58:22;3.63;;;3.27;;
16813;SDS011;8524;57.650;11.926;2023-02-28T01:00:50;4.17;;;3.13;;
16813;SDS011;8524;57.650;11.926;2023-02-28T01:03:18;4.20;;;3.23;;
16813;SDS011;8524;57.650;11.926;2023-02-28T01:05:46;3.37;;;3.07;;
16813;SDS011;8524;57.650;11.926;2023-02-28T01:08:13;3.63;;;2.80;;
16813;SDS011;8524;57.650;11.926;2023-02-28T01:10:40;4.97;;;3.20;;
16813;SDS011;8524;57.650;11.926;2023-02-28T01:13:09;4.47;;;3.43;;
16813;SDS011;8524;57.650;11.926;2023-02-28T01:15:45;3.33;;;2.97;;
16813;SDS011;8524;57.650;11.926;2023-02-28T01:18:16;3.80;;;2.90;;
16813;SDS011;8524;57.650;11.926;2023-02-28T01:20:43;4.50;;;3.00;;
16813;SDS011;8524;57.650;11.926;2023-02-28T01:23:11;4.10;;;3.17;;
16813;SDS011;8524;57.650;11.926;2023-02-28T01:25:38;4.50;;;3.03;;
16813;SDS011;8524;57.650;11.926;2023-02-28T01:28:05;4.57;;;3.60;;
16813;SDS011;8524;57.650;11.926;2023-02-28T01:30:34;5.33;;;3.17;;
16813;SDS011;8524;57.650;11.926;2023-02-28T01:33:02;5.60;;;3.13;;
16813;SDS011;8524;57.650;11.926;2023-02-28T01:35:31;5.40;;;3.30;;
16813;SDS011;8524;57.650;11.926;2023-02-28T01:37:58;5.83;;;3.60;;
16813;SDS011;8524;57.650;11.926;2023-02-28T01:40:25;4.20;;;3.00;;
16813;SDS011;8524;57.650;11.926;2023-02-28T01:42:52;3.53;;;2.90;;
16813;SDS011;8524;57.650;11.926;2023-02-28T01:45:21;4.83;;;3.30;;
16813;SDS011;8524;57.650;11.926;2023-02-28T01:47:53;4.17;;;3.23;;
16813;SDS011;8524;57.650;11.926;2023-02-28T01:50:24;3.83;;;3.10;;
16813;SDS011;8524;57.650;11.926;2023-02-28T01:52:54;4.10;;;2.97;;
16813;SDS011;8524;57.650;11.926;2023-02-28T01:55:24;5.27;;;2.57;;
16813;SDS011;8524;57.650;11.926;2023-02-28T01:57:54;4.00;;;3.20;;
16813;SDS011;8524;57.650;11.926;2023-02-28T02:00:25;3.73;;;3.10;;
16813;SDS011;8524;57.650;11.926;2023-02-28T02:02:56;3.07;;;2.77;;
16813;SDS011;8524;57.650;11.926;2023-02-28T02:05:26;3.97;;;3.03;;
16813;SDS011;8524;57.650;11.926;2023-02-28T02:07:56;3.37;;;2.90;;
16813;SDS011;8524;57.650;11.926;2023-02-28T02:10:27;4.03;;;2.80;;
16813;SDS011;8524;57.650;11.926;2023-02-28T02:13:14;4.20;;;3.03;;
16813;SDS011;8524;57.650;11.926;2023-02-28T02:16:01;4.53;;;3.33;;
16813;SDS011;8524;57.650;11.926;2023-02-28T02:18:37;5.63;;;3.17;;
16813;SDS011;8524;57.650;11.926;2023-02-28T02:21:17;4.87;;;3.40;;
16813;SDS011;8524;57.650;11.926;2023-02-28T02:27:09;4.87;;;3.40;;
16813;SDS011;8524;57.650;11.926;2023-02-28T02:33:01;4.23;;;2.83;;
16813;SDS011;8524;57.650;11.926;2023-02-28T02:35:39;4.00;;;2.93;;
16813;SDS011;8524;57.650;11.926;2023-02-28T02:38:13;4.23;;;3.10;;
16813;SDS011;8524;57.650;11.926;2023-02-28T02:40:47;5.77;;;3.30;;
16813;SDS011;8524;57.650;11.926;2023-02-28T02:43:19;6.97;;;3.10;;
16813;SDS011;8524;57.650;11.926;2023-02-28T02:45:52;5.17;;;3.23;;
16813;SDS011;8524;57.650;11.926;2023-02-28T02:48:24;4.97;;;3.40;;
16813;SDS011;8524;57.650;11.926;2023-02-28T02:50:55;2.93;;;2.43;;
16813;SDS011;8524;57.650;11.926;2023-02-28T02:53:27;5.50;;;3.47;;
16813;SDS011;8524;57.650;11.926;2023-02-28T02:55:56;3.20;;;2.57;;
16813;SDS011;8524;57.650;11.926;2023-02-28T02:58:26;4.20;;;2.77;;
16813;SDS011;8524;57.650;11.926;2023-02-28T03:00:57;3.90;;;3.07;;
16813;SDS011;8524;57.650;11.926;2023-02-28T03:03:27;3.77;;;2.93;;
16813;SDS011;8524;57.650;11.926;2023-02-28T03:05:57;3.43;;;3.13;;
16813;SDS011;8524;57.650;11.926;2023-02-28T03:08:26;3.77;;;2.93;;
16813;SDS011;8524;57.650;11.926;2023-02-28T03:10:55;5.80;;;3.20;;
16813;SDS011;8524;57.650;11.926;2023-02-28T03:16:35;4.83;;;3.10;;
16813;SDS011;8524;57.650;11.926;2023-02-28T03:19:19;4.07;;;3.47;;
16813;SDS011;8524;57.650;11.926;2023-02-28T03:22:03;5.43;;;3.17;;
16813;SDS011;8524;57.650;11.926;2023-02-28T03:24:43;7.27;;;3.13;;
16813;SDS011;8524;57.650;11.926;2023-02-28T03:27:17;3.83;;;3.13;;
16813;SDS011;8524;57.650;11.926;2023-02-28T03:29:51;4.07;;;3.00;;
16813;SDS011;8524;57.650;11.926;2023-02-28T03:32:27;4.63;;;3.27;;
16813;SDS011;8524;57.650;11.926;2023-02-28T03:34:59;4.07;;;3.70;;
16813;SDS011;8524;57.650;11.926;2023-02-28T03:37:32;2.87;;;2.63;;
16813;SDS011;8524;57.650;11.926;2023-02-28T03:40:04;4.27;;;3.00;;
16813;SDS011;8524;57.650;11.926;2023-02-28T03:42:37;2.90;;;2.70;;
16813;SDS011;8524;57.650;11.926;2023-02-28T03:45:10;6.37;;;3.10;;
16813;SDS011;8524;57.650;11.926;2023-02-28T03:47:41;4.07;;;2.73;;
16813;SDS011;8524;57.650;11.926;2023-02-28T03:50:14;3.93;;;2.93;;
16813;SDS011;8524;57.650;11.926;2023-02-28T03:52:48;5.60;;;2.87;;
16813;SDS011;8524;57.650;11.926;2023-02-28T03:55:18;3.80;;;3.00;;
16813;SDS011;8524;57.650;11.926;2023-02-28T03:57:50;3.73;;;2.90;;
16813;SDS011;8524;57.650;11.926;2023-02-28T04:00:25;3.37;;;2.77;;
16813;SDS011;8524;57.650;11.926;2023-02-28T04:02:57;3.23;;;2.93;;
16813;SDS011;8524;57.650;11.926;2023-02-28T04:05:25;4.87;;;3.83;;
16813;SDS011;8524;57.650;11.926;2023-02-28T04:07:55;4.03;;;3.20;;
16813;SDS011;8524;57.650;11.926;2023-02-28T04:10:30;4.10;;;3.07;;
16813;SDS011;8524;57.650;11.926;2023-02-28T04:12:57;4.87;;;3.07;;
16813;SDS011;8524;57.650;11.926;2023-02-28T04:15:25;3.63;;;2.80;;
16813;SDS011;8524;57.650;11.926;2023-02-28T04:17:52;3.70;;;3.10;;
16813;SDS011;8524;57.650;11.926;2023-02-28T04:20:19;2.83;;;2.53;;
16813;SDS011;8524;57.650;11.926;2023-02-28T04:22:46;5.77;;;3.30;;
16813;SDS011;8524;57.650;11.926;2023-02-28T04:25:15;3.70;;;3.20;;
16813;SDS011;8524;57.650;11.926;2023-02-28T04:27:42;3.30;;;2.80;;
16813;SDS011;8524;57.650;11.926;2023-02-28T04:30:10;3.60;;;2.93;;
16813;SDS011;8524;57.650;11.926;2023-02-28T04:32:37;4.20;;;3.13;;
16813;SDS011;8524;57.650;11.926;2023-02-28T04:35:05;4.37;;;3.17;;
16813;SDS011;8524;57.650;11.926;2023-02-28T04:37:32;4.90;;;3.73;;
16813;SDS011;8524;57.650;11.926;2023-02-28T04:39:59;3.73;;;3.10;;
16813;SDS011;8524;57.650;11.926;2023-02-28T04:42:29;4.13;;;3.20;;
16813;SDS011;8524;57.650;11.926;2023-02-28T04:45:01;4.63;;;3.10;;
16813;SDS011;8524;57.650;11.926;2023-02-28T04:47:29;4.60;;;3.55;;
16813;SDS011;8524;57.650;11.926;2023-02-28T04:49:56;5.50;;;3.57;;
16813;SDS011;8524;57.650;11.926;2023-02-28T04:52:23;3.60;;;3.03;;
16813;SDS011;8524;57.650;11.926;2023-02-28T04:54:50;3.57;;;2.80;;
16813;SDS011;8524;57.650;11.926;2023-02-28T04:57:17;3.70;;;3.23;;
16813;SDS011;8524;57.650;11.926;2023-02-28T04:59:46;5.83;;;3.30;;
16813;SDS011;8524;57.650;11.926;2023-02-28T05:02:13;3.73;;;3.33;;
16813;SDS011;8524;57.650;11.926;2023-02-28T05:04:39;4.40;;;3.27;;
16813;SDS011;8524;57.650;11.926;2023-02-28T05:07:06;4.03;;;3.33;;
16813;SDS011;8524;57.650;11.926;2023-02-28T05:09:34;5.23;;;3.43;;
16813;SDS011;8524;57.650;11.926;2023-02-28T05:12:02;4.83;;;3.93;;
16813;SDS011;8524;57.650;11.926;2023-02-28T05:14:29;4.57;;;3.47;;
16813;SDS011;8524;57.650;11.926;2023-02-28T05:16:57;4.40;;;3.10;;
16813;SDS011;8524;57.650;11.926;2023-02-28T05:19:24;4.63;;;3.20;;
16813;SDS011;8524;57.650;11.926;2023-02-28T05:21:52;4.17;;;2.97;;
16813;SDS011;8524;57.650;11.926;2023-02-28T05:24:20;5.67;;;3.27;;
16813;SDS011;8524;57.650;11.926;2023-02-28T05:26:49;3.97;;;3.23;;
16813;SDS011;8524;57.650;11.926;2023-02-28T05:29:17;4.30;;;2.83;;
16813;SDS011;8524;57.650;11.926;2023-02-28T05:31:45;6.97;;;3.00;;
16813;SDS011;8524;57.650;11.926;2023-02-28T05:34:13;3.67;;;3.20;;
16813;SDS011;8524;57.650;11.926;2023-02-28T05:36:41;3.57;;;2.87;;
16813;SDS011;8524;57.650;11.926;2023-02-28T05:39:08;3.20;;;2.67;;
16813;SDS011;8524;57.650;11.926;2023-02-28T05:41:38;3.87;;;2.87;;
16813;SDS011;8524;57.650;11.926;2023-02-28T05:44:06;5.70;;;3.40;;
16813;SDS011;8524;57.650;11.926;2023-02-28T05:46:33;4.23;;;3.10;;
16813;SDS011;8524;57.650;11.926;2023-02-28T05:49:00;5.80;;;3.60;;
16813;SDS011;8524;57.650;11.926;2023-02-28T05:51:29;4.17;;;3.77;;
16813;SDS011;8524;57.650;11.926;2023-02-28T05:54:00;4.37;;;3.50;;
16813;SDS011;8524;57.650;11.926;2023-02-28T05:56:28;3.90;;;3.50;;
16813;SDS011;8524;57.650;11.926;2023-02-28T05:58:55;3.43;;;3.10;;
16813;SDS011;8524;57.650;11.926;2023-02-28T06:01:24;6.67;;;3.37;;
16813;SDS011;8524;57.650;11.926;2023-02-28T06:03:58;4.40;;;3.20;;
16813;SDS011;8524;57.650;11.926;2023-02-28T06:06:25;4.17;;;3.73;;
16813;SDS011;8524;57.650;11.926;2023-02-28T06:08:54;3.10;;;2.90;;
16813;SDS011;8524;57.650;11.926;2023-02-28T06:11:21;3.50;;;2.97;;
16813;SDS011;8524;57.650;11.926;2023-02-28T06:13:52;5.53;;;2.97;;
16813;SDS011;8524;57.650;11.926;2023-02-28T06:16:21;4.77;;;3.27;;
16813;SDS011;8524;57.650;11.926;2023-02-28T06:18:48;5.20;;;3.13;;
16813;SDS011;8524;57.650;11.926;2023-02-28T06:21:15;6.30;;;3.47;;
16813;SDS011;8524;57.650;11.926;2023-02-28T06:23:42;6.67;;;4.00;;
16813;SDS011;8524;57.650;11.926;2023-02-28T06:26:11;4.07;;;3.37;;
16813;SDS011;8524;57.650;11.926;2023-02-28T06:28:38;5.47;;;3.47;;
16813;SDS011;8524;57.650;11.926;2023-02-28T06:31:06;5.88;;;4.70;;
16813;SDS011;8524;57.650;11.926;2023-02-28T06:33:34;5.63;;;3.90;;
16813;SDS011;8524;57.650;11.926;2023-02-28T06:36:02;4.37;;;3.07;;
16813;SDS011;8524;57.650;11.926;2023-02-28T06:38:30;5.53;;;4.03;;
16813;SDS011;8524;57.650;11.926;2023-02-28T06:40:58;6.30;;;3.53;;
16813;SDS011;8524;57.650;11.926;2023-02-28T06:43:29;5.90;;;3.70;;
16813;SDS011;8524;57.650;11.926;2023-02-28T06:45:58;5.17;;;3.87;;
16813;SDS011;8524;57.650;11.926;2023-02-28T06:48:26;5.60;;;3.50;;
16813;SDS011;8524;57.650;11.926;2023-02-28T06:51:00;7.50;;;3.63;;
16813;SDS011;8524;57.650;11.926;2023-02-28T06:53:28;6.20;;;3.80;;
16813;SDS011;8524;57.650;11.926;2023-02-28T06:55:55;7.77;;;4.00;;
16813;SDS011;8524;57.650;11.926;2023-02-28T06:58:22;6.67;;;4.13;;
16813;SDS011;8524;57.650;11.926;2023-02-28T07:00:51;5.57;;;3.80;;
16813;SDS011;8524;57.650;11.926;2023-02-28T07:03:19;4.63;;;3.80;;
16813;SDS011;8524;57.650;11.926;2023-02-28T07:05:46;6.97;;;3.77;;
16813;SDS011;8524;57.650;11.926;2023-02-28T07:08:13;7.43;;;3.63;;
16813;SDS011;8524;57.650;11.926;2023-02-28T07:10:41;6.25;;;4.40;;
16813;SDS011;8524;57.650;11.926;2023-02-28T07:13:09;4.93;;;3.87;;
16813;SDS011;8524;57.650;11.926;2023-02-28T07:15:36;5.53;;;4.00;;
16813;SDS011;8524;57.650;11.926;2023-02-28T07:18:05;6.10;;;4.47;;
16813;SDS011;8524;57.650;11.926;2023-02-28T07:20:32;6.10;;;4.40;;
16813;SDS011;8524;57.650;11.926;2023-02-28T07:22:59;6.77;;;4.27;;
16813;SDS011;8524;57.650;11.926;2023-02-28T07:25:27;5.17;;;4.10;;
16813;SDS011;8524;57.650;11.926;2023-02-28T07:27:55;6.33;;;3.97;;
16813;SDS011;8524;57.650;11.926;2023-02-28T07:30:24;4.70;;;4.10;;
16813;SDS011;8524;57.650;11.926;2023-02-28T07:32:51;6.40;;;3.30;;
16813;SDS011;8524;57.650;11.926;2023-02-28T07:35:21;8.30;;;4.60;;
16813;SDS011;8524;57.650;11.926;2023-02-28T07:37:48;6.67;;;4.93;;
16813;SDS011;8524;57.650;11.926;2023-02-28T07:40:16;13.63;;;5.40;;
16813;SDS011;8524;57.650;11.926;2023-02-28T07:42:45;15.00;;;6.70;;
16813;SDS011;8524;57.650;11.926;2023-02-28T07:45:12;16.80;;;6.90;;
16813;SDS011;8524;57.650;11.926;2023-02-28T07:47:42;17.30;;;6.90;;
16813;SDS011;8524;57.650;11.926;2023-02-28T07:50:11;12.30;;;6.40;;
16813;SDS011;8524;57.650;11.926;2023-02-28T07:52:43;21.27;;;6.77;;
16813;SDS011;8524;57.650;11.926;2023-02-28T07:55:11;12.80;;;6.07;;
16813;SDS011;8524;57.650;11.926;2023-02-28T07:57:39;14.30;;;6.57;;
16813;SDS011;8524;57.650;11.926;2023-02-28T08:00:07;18.13;;;7.27;;
16813;SDS011;8524;57.650;11.926;2023-02-28T08:02:39;14.90;;;7.13;;
16813;SDS011;8524;57.650;11.926;2023-02-28T08:05:06;17.93;;;7.67;;
16813;SDS011;8524;57.650;11.926;2023-02-28T08:07:34;16.30;;;8.20;;
16813;SDS011;8524;57.650;11.926;2023-02-28T08:10:04;16.83;;;8.13;;
16813;SDS011;8524;57.650;11.926;2023-02-28T08:12:36;16.37;;;8.30;;
16813;SDS011;8524;57.650;11.926;2023-02-28T08:15:06;14.53;;;7.40;;
16813;SDS011;8524;57.650;11.926;2023-02-28T08:17:35;18.07;;;8.00;;
16813;SDS011;8524;57.650;11.926;2023-02-28T08:20:02;16.20;;;8.03;;
16813;SDS011;8524;57.650;11.926;2023-02-28T08:22:32;16.97;;;7.57;;
16813;SDS011;8524;57.650;11.926;2023-02-28T08:24:59;15.10;;;7.70;;
16813;SDS011;8524;57.650;11.926;2023-02-28T08:27:28;14.60;;;7.70;;
16813;SDS011;8524;57.650;11.926;2023-02-28T08:29:56;18.77;;;8.50;;
16813;SDS011;8524;57.650;11.926;2023-02-28T08:32:23;17.63;;;7.57;;
16813;SDS011;8524;57.650;11.926;2023-02-28T08:34:50;11.10;;;7.22;;
16813;SDS011;8524;57.650;11.926;2023-02-28T08:37:18;32.93;;;7.40;;
16813;SDS011;8524;57.650;11.926;2023-02-28T08:39:45;10.47;;;6.43;;
16813;SDS011;8524;57.650;11.926;2023-02-28T08:42:12;9.17;;;5.40;;
16813;SDS011;8524;57.650;11.926;2023-02-28T08:44:41;7.50;;;4.60;;
16813;SDS011;8524;57.650;11.926;2023-02-28T08:47:11;5.37;;;3.93;;
16813;SDS011;8524;57.650;11.926;2023-02-28T08:49:38;5.77;;;4.40;;
16813;SDS011;8524;57.650;11.926;2023-02-28T08:52:07;9.17;;;5.57;;
16813;SDS011;8524;57.650;11.926;2023-02-28T08:54:38;5.90;;;3.97;;
16813;SDS011;8524;57.650;11.926;2023-02-28T08:57:05;6.63;;;4.27;;
16813;SDS011;8524;57.650;11.926;2023-02-28T08:59:33;14.93;;;4.73;;
16813;SDS011;8524;57.650;11.926;2023-02-28T09:02:02;15.57;;;4.57;;
16813;SDS011;8524;57.650;11.926;2023-02-28T09:04:31;5.70;;;4.27;;
16813;SDS011;8524;57.650;11.926;2023-02-28T09:07:02;6.47;;;4.70;;
16813;SDS011;8524;57.650;11.926;2023-02-28T09:09:29;6.73;;;3.97;;
16813;SDS011;8524;57.650;11.926;2023-02-28T09:11:56;6.37;;;4.67;;
16813;SDS011;8524;57.650;11.926;2023-02-28T09:14:24;6.20;;;4.43;;
16813;SDS011;8524;57.650;11.926;2023-02-28T09:16:52;5.80;;;4.17;;
16813;SDS011;8524;57.650;11.926;2023-02-28T09:19:21;9.33;;;4.17;;
16813;SDS011;8524;57.650;11.926;2023-02-28T09:21:50;9.20;;;4.53;;
16813;SDS011;8524;57.650;11.926;2023-02-28T09:24:20;5.10;;;3.87;;
16813;SDS011;8524;57.650;11.926;2023-02-28T09:26:47;5.03;;;4.00;;
16813;SDS011;8524;57.650;11.926;2023-02-28T09:29:15;9.73;;;3.73;;
16813;SDS011;8524;57.650;11.926;2023-02-28T09:31:42;11.73;;;4.03;;
16813;SDS011;8524;57.650;11.926;2023-02-28T09:34:09;4.23;;;3.07;;
16813;SDS011;8524;57.650;11.926;2023-02-28T09:36:38;3.80;;;3.40;;
16813;SDS011;8524;57.650;11.926;2023-02-28T09:39:05;4.57;;;3.00;;
16813;SDS011;8524;57.650;11.926;2023-02-28T09:41:36;3.63;;;2.63;;
16813;SDS011;8524;57.650;11.926;2023-02-28T09:44:16;9.83;;;3.23;;
16813;SDS011;8524;57.650;11.926;2023-02-28T09:46:50;14.95;;;3.63;;
16813;SDS011;8524;57.650;11.926;2023-02-28T09:49:22;3.50;;;3.20;;
16813;SDS011;8524;57.650;11.926;2023-02-28T09:51:55;29.57;;;4.23;;
16813;SDS011;8524;57.650;11.926;2023-02-28T09:54:27;4.33;;;3.07;;
16813;SDS011;8524;57.650;11.926;2023-02-28T09:56:58;12.87;;;3.40;;
16813;SDS011;8524;57.650;11.926;2023-02-28T09:59:34;3.90;;;2.73;;
16813;SDS011;8524;57.650;11.926;2023-02-28T10:02:16;3.20;;;2.90;;
16813;SDS011;8524;57.650;11.926;2023-02-28T10:05:04;3.47;;;2.60;;
16813;SDS011;8524;57.650;11.926;2023-02-28T10:07:41;3.13;;;2.80;;
16813;SDS011;8524;57.650;11.926;2023-02-28T10:10:21;6.50;;;3.10;;
16813;SDS011;8524;57.650;11.926;2023-02-28T10:12:55;8.20;;;2.60;;
16813;SDS011;8524;57.650;11.926;2023-02-28T10:15:26;11.43;;;3.33;;
16813;SDS011;8524;57.650;11.926;2023-02-28T10:17:58;6.97;;;2.73;;
16813;SDS011;8524;57.650;11.926;2023-02-28T10:20:31;3.60;;;2.97;;
16813;SDS011;8524;57.650;11.926;2023-02-28T10:23:05;14.17;;;3.73;;
16813;SDS011;8524;57.650;11.926;2023-02-28T10:25:39;3.63;;;2.93;;
16813;SDS011;8524;57.650;11.926;2023-02-28T10:28:13;3.60;;;3.03;;
16813;SDS011;8524;57.650;11.926;2023-02-28T10:30:48;3.60;;;3.10;;
16813;SDS011;8524;57.650;11.926;2023-02-28T10:33:19;4.93;;;3.40;;
16813;SDS011;8524;57.650;11.926;2023-02-28T10:35:50;3.47;;;2.63;;
16813;SDS011;8524;57.650;11.926;2023-02-28T10:38:22;11.33;;;3.37;;
16813;SDS011;8524;57.650;11.926;2023-02-28T10:40:57;3.10;;;2.80;;
16813;SDS011;8524;57.650;11.926;2023-02-28T10:43:31;2.97;;;2.57;;
16813;SDS011;8524;57.650;11.926;2023-02-28T10:46:01;5.53;;;3.27;;
16813;SDS011;8524;57.650;11.926;2023-02-28T10:48:33;2.73;;;2.53;;
16813;SDS011;8524;57.650;11.926;2023-02-28T10:51:04;3.37;;;2.70;;
16813;SDS011;8524;57.650;11.926;2023-02-28T10:53:44;3.53;;;3.13;;
16813;SDS011;8524;57.650;11.926;2023-02-28T10:56:28;3.80;;;3.07;;
16813;SDS011;8524;57.650;11.926;2023-02-28T10:58:56;3.77;;;3.13;;
16813;SDS011;8524;57.650;11.926;2023-02-28T11:01:27;3.63;;;2.83;;
16813;SDS011;8524;57.650;11.926;2023-02-28T11:04:03;4.10;;;3.50;;
16813;SDS011;8524;57.650;11.926;2023-02-28T11:06:56;4.00;;;3.30;;
16813;SDS011;8524;57.650;11.926;2023-02-28T11:09:28;5.17;;;4.00;;
16813;SDS011;8524;57.650;11.926;2023-02-28T11:11:57;4.33;;;3.93;;
16813;SDS011;8524;57.650;11.926;2023-02-28T11:14:27;4.70;;;3.90;;
16813;SDS011;8524;57.650;11.926;2023-02-28T11:17:00;5.60;;;4.43;;
16813;SDS011;8524;57.650;11.926;2023-02-28T11:19:54;4.40;;;3.80;;
16813;SDS011;8524;57.650;11.926;2023-02-28T11:22:24;6.70;;;5.23;;
16813;SDS011;8524;57.650;11.926;2023-02-28T11:27:52;4.60;;;4.07;;
16813;SDS011;8524;57.650;11.926;2023-02-28T11:30:25;6.47;;;4.80;;
16813;SDS011;8524;57.650;11.926;2023-02-28T11:36:27;5.40;;;4.47;;
16813;SDS011;8524;57.650;11.926;2023-02-28T11:39:08;5.73;;;4.27;;
16813;SDS011;8524;57.650;11.926;2023-02-28T11:45:18;7.20;;;4.63;;
16813;SDS011;8524;57.650;11.926;2023-02-28T11:48:14;5.50;;;4.23;;
16813;SDS011;8524;57.650;11.926;2023-02-28T11:50:54;5.03;;;4.20;;
16813;SDS011;8524;57.650;11.926;2023-02-28T11:56:36;5.07;;;4.27;;
16813;SDS011;8524;57.650;11.926;2023-02-28T11:59:15;5.73;;;5.13;;
16813;SDS011;8524;57.650;11.926;2023-02-28T12:02:10;7.83;;;5.70;;
16813;SDS011;8524;57.650;11.926;2023-02-28T12:04:51;5.70;;;4.17;;
16813;SDS011;8524;57.650;11.926;2023-02-28T12:07:25;7.87;;;4.77;;
16813;SDS011;8524;57.650;11.926;2023-02-28T12:10:03;5.87;;;4.50;;
16813;SDS011;8524;57.650;11.926;2023-02-28T12:12:47;5.73;;;4.23;;
16813;SDS011;8524;57.650;11.926;2023-02-28T12:18:33;4.90;;;4.03;;
16813;SDS011;8524;57.650;11.926;2023-02-28T12:21:14;4.20;;;3.80;;
16813;SDS011;8524;57.650;11.926;2023-02-28T12:23:54;4.67;;;3.47;;
16813;SDS011;8524;57.650;11.926;2023-02-28T12:26:37;4.73;;;3.80;;
16813;SDS011;8524;57.650;11.926;2023-02-28T12:29:10;6.47;;;4.10;;
16813;SDS011;8524;57.650;11.926;2023-02-28T12:31:45;4.80;;;3.47;;
16813;SDS011;8524;57.650;11.926;2023-02-28T12:34:18;5.63;;;3.40;;
16813;SDS011;8524;57.650;11.926;2023-02-28T12:36:49;4.67;;;3.60;;
16813;SDS011;8524;57.650;11.926;2023-02-28T12:39:20;3.70;;;3.23;;
16813;SDS011;8524;57.650;11.926;2023-02-28T12:41:58;4.17;;;3.27;;
16813;SDS011;8524;57.650;11.926;2023-02-28T12:44:30;4.93;;;3.50;;
16813;SDS011;8524;57.650;11.926;2023-02-28T12:47:02;4.50;;;3.10;;
16813;SDS011;8524;57.650;11.926;2023-02-28T12:49:34;3.57;;;3.07;;
16813;SDS011;8524;57.650;11.926;2023-02-28T12:52:07;4.47;;;3.50;;
16813;SDS011;8524;57.650;11.926;2023-02-28T12:54:40;4.10;;;3.03;;
16813;SDS011;8524;57.650;11.926;2023-02-28T12:57:14;2.97;;;2.50;;
16813;SDS011;8524;57.650;11.926;2023-02-28T12:59:48;5.00;;;3.50;;
16813;SDS011;8524;57.650;11.926;2023-02-28T13:05:41;3.23;;;2.20;;
16813;SDS011;8524;57.650;11.926;2023-02-28T13:08:39;3.70;;;2.53;;
16813;SDS011;8524;57.650;11.926;2023-02-28T13:11:29;3.47;;;2.43;;
16813;SDS011;8524;57.650;11.926;2023-02-28T13:13:59;3.00;;;2.50;;
16813;SDS011;8524;57.650;11.926;2023-02-28T13:16:28;2.30;;;2.10;;
16813;SDS011;8524;57.650;11.926;2023-02-28T13:19:15;3.70;;;2.30;;
16813;SDS011;8524;57.650;11.926;2023-02-28T13:21:46;2.43;;;2.20;;
16813;SDS011;8524;57.650;11.926;2023-02-28T13:27:21;2.03;;;1.83;;
16813;SDS011;8524;57.650;11.926;2023-02-28T13:30:02;2.23;;;1.83;;
16813;SDS011;8524;57.650;11.926;2023-02-28T13:33:24;2.10;;;1.67;;
16813;SDS011;8524;57.650;11.926;2023-02-28T13:36:10;2.83;;;1.90;;
16813;SDS011;8524;57.650;11.926;2023-02-28T13:38:53;2.17;;;1.60;;
16813;SDS011;8524;57.650;11.926;2023-02-28T13:41:44;1.90;;;1.70;;
16813;SDS011;8524;57.650;11.926;2023-02-28T13:44:17;3.40;;;1.67;;
16813;SDS011;8524;57.650;11.926;2023-02-28T13:49:55;2.07;;;1.70;;
16813;SDS011;8524;57.650;11.926;2023-02-28T13:52:47;2.43;;;1.83;;
16813;SDS011;8524;57.650;11.926;2023-02-28T13:55:26;2.27;;;2.03;;
16813;SDS011;8524;57.650;11.926;2023-02-28T14:01:00;2.60;;;2.40;;
16813;SDS011;8524;57.650;11.926;2023-02-28T14:03:42;2.40;;;2.20;;
16813;SDS011;8524;57.650;11.926;2023-02-28T14:06:23;3.67;;;2.20;;
16813;SDS011;8524;57.650;11.926;2023-02-28T14:08:55;2.40;;;2.20;;
16813;SDS011;8524;57.650;11.926;2023-02-28T14:11:31;3.60;;;2.37;;
16813;SDS011;8524;57.650;11.926;2023-02-28T14:14:09;3.40;;;2.90;;
16813;SDS011;8524;57.650;11.926;2023-02-28T14:17:06;2.67;;;2.47;;
16813;SDS011;8524;57.650;11.926;2023-02-28T14:19:38;2.67;;;2.17;;
16813;SDS011;8524;57.650;11.926;2023-02-28T14:22:18;3.10;;;2.63;;
16813;SDS011;8524;57.650;11.926;2023-02-28T14:25:14;3.93;;;3.07;;
16813;SDS011;8524;57.650;11.926;2023-02-28T14:27:53;3.10;;;2.43;;
16813;SDS011;8524;57.650;11.926;2023-02-28T14:36:40;3.50;;;2.70;;
16813;SDS011;8524;57.650;11.926;2023-02-28T14:39:11;2.70;;;2.50;;
16813;SDS011;8524;57.650;11.926;2023-02-28T14:41:41;4.27;;;3.03;;
16813;SDS011;8524;57.650;11.926;2023-02-28T14:44:16;3.07;;;2.77;;
16813;SDS011;8524;57.650;11.926;2023-02-28T14:46:50;3.23;;;2.93;;
16813;SDS011;8524;57.650;11.926;2023-02-28T14:49:34;2.47;;;2.27;;
16813;SDS011;8524;57.650;11.926;2023-02-28T14:52:05;3.00;;;2.73;;
16813;SDS011;8524;57.650;11.926;2023-02-28T14:54:39;2.80;;;2.60;;
16813;SDS011;8524;57.650;11.926;2023-02-28T14:57:18;2.90;;;2.43;;
16813;SDS011;8524;57.650;11.926;2023-02-28T14:59:58;2.67;;;2.47;;
16813;SDS011;8524;57.650;11.926;2023-02-28T15:02:31;3.27;;;2.33;;
16813;SDS011;8524;57.650;11.926;2023-02-28T15:05:22;2.50;;;2.30;;
16813;SDS011;8524;57.650;11.926;2023-02-28T15:08:00;3.40;;;3.10;;
16813;SDS011;8524;57.650;11.926;2023-02-28T15:10:29;2.43;;;2.23;;
16813;SDS011;8524;57.650;11.926;2023-02-28T15:12:57;3.20;;;2.90;;
16813;SDS011;8524;57.650;11.926;2023-02-28T15:15:29;4.77;;;3.57;;
16813;SDS011;8524;57.650;11.926;2023-02-28T15:18:06;4.40;;;3.20;;
16813;SDS011;8524;57.650;11.926;2023-02-28T15:20:39;3.07;;;2.77;;
16813;SDS011;8524;57.650;11.926;2023-02-28T15:23:08;3.53;;;3.23;;
16813;SDS011;8524;57.650;11.926;2023-02-28T15:25:37;4.37;;;3.30;;
16813;SDS011;8524;57.650;11.926;2023-02-28T15:28:12;5.17;;;4.00;;
16813;SDS011;8524;57.650;11.926;2023-02-28T15:30:51;3.60;;;3.30;;
16813;SDS011;8524;57.650;11.926;2023-02-28T15:33:24;5.27;;;4.10;;
16813;SDS011;8524;57.650;11.926;2023-02-28T15:36:03;5.30;;;4.73;;
16813;SDS011;8524;57.650;11.926;2023-02-28T15:38:34;4.83;;;3.90;;
16813;SDS011;8524;57.650;11.926;2023-02-28T15:41:02;4.07;;;3.30;;
16813;SDS011;8524;57.650;11.926;2023-02-28T15:43:33;3.73;;;3.40;;
16813;SDS011;8524;57.650;11.926;2023-02-28T15:46:03;4.40;;;4.00;;
16813;SDS011;8524;57.650;11.926;2023-02-28T15:48:33;4.40;;;3.97;;
16813;SDS011;8524;57.650;11.926;2023-02-28T15:51:03;4.73;;;4.20;;
16813;SDS011;8524;57.650;11.926;2023-02-28T15:53:35;4.97;;;4.47;;
16813;SDS011;8524;57.650;11.926;2023-02-28T15:56:04;3.70;;;3.30;;
16813;SDS011;8524;57.650;11.926;2023-02-28T15:58:48;3.83;;;3.37;;